createdAt,value
2022-11-15T00:01:35.354Z,24.75
2022-11-15T00:04:06.214Z,24.25
2022-11-15T00:06:36.547Z,17.00
2022-11-15T00:09:08.137Z,29.50
2022-11-15T00:11:39.314Z,28.50
2022-11-15T00:14:10.424Z,35.25
2022-11-15T00:16:40.579Z,39.25
2022-11-15T00:19:11.028Z,30.50
2022-11-15T00:21:41.476Z,38.50
2022-11-15T00:24:11.791Z,32.00
2022-11-15T00:26:42.244Z,40.25
2022-11-15T00:29:12.665Z,34.50
2022-11-15T00:31:42.911Z,33.25
2022-11-15T00:34:13.396Z,31.50
2022-11-15T00:36:43.740Z,31.25
2022-11-15T00:39:14.100Z,26.75
2022-11-15T00:41:44.721Z,42.00
2022-11-15T00:44:15.223Z,48.50
2022-11-15T00:46:45.608Z,67.25
2022-11-15T00:49:16.080Z,68.50
2022-11-15T00:51:46.501Z,53.25
2022-11-15T00:54:16.825Z,42.00
2022-11-15T00:56:47.215Z,33.25
2022-11-15T00:59:17.569Z,40.75
2022-11-15T01:01:48.005Z,35.25
2022-11-15T01:04:18.500Z,24.50
2022-11-15T01:06:48.948Z,35.00
2022-11-15T01:09:20.004Z,42.50
2022-11-15T01:11:50.471Z,37.00
2022-11-15T01:14:25.327Z,41.25
2022-11-15T01:16:54.502Z,29.00
2022-11-15T01:19:25.003Z,32.25
2022-11-15T01:21:55.360Z,27.25
2022-11-15T01:24:26.118Z,35.00
2022-11-15T01:26:57.151Z,30.75
2022-11-15T01:29:27.751Z,34.00
2022-11-15T01:31:59.557Z,34.50
2022-11-15T01:34:29.994Z,33.50
2022-11-15T01:37:01.434Z,31.25
2022-11-15T01:39:32.212Z,37.75
2022-11-15T01:42:02.963Z,35.00
2022-11-15T01:44:39.523Z,36.25
2022-11-15T01:47:13.759Z,40.50
2022-11-15T01:49:54.572Z,40.75
2022-11-15T01:52:28.387Z,35.00
2022-11-15T01:57:53.850Z,37.75
2022-11-15T02:00:24.323Z,37.75
2022-11-15T02:02:56.065Z,41.25
2022-11-15T02:05:26.984Z,41.00
2022-11-15T02:07:57.812Z,36.00
2022-11-15T02:10:29.717Z,43.25
2022-11-15T02:13:03.029Z,42.25
2022-11-15T02:15:56.948Z,35.00
2022-11-15T02:18:29.442Z,36.50
2022-11-15T02:21:08.305Z,38.50
2022-11-15T02:23:51.207Z,40.50
2022-11-15T02:26:57.523Z,39.75
2022-11-15T02:29:49.574Z,37.50
2022-11-15T02:32:25.492Z,42.25
2022-11-15T02:35:19.754Z,41.25
2022-11-15T02:38:10.679Z,42.00
2022-11-15T02:43:36.347Z,34.50
2022-11-15T02:49:06.786Z,36.75
2022-11-15T02:51:38.127Z,36.50
2022-11-15T02:54:10.313Z,40.00
2022-11-15T02:56:42.114Z,32.50
2022-11-15T02:59:48.696Z,39.75
2022-11-15T03:02:39.916Z,37.00
2022-11-15T03:05:15.910Z,35.50
2022-11-15T03:08:02.686Z,42.00
2022-11-15T03:10:47.937Z,42.25
2022-11-15T03:16:31.429Z,41.75
2022-11-15T03:19:07.652Z,47.50
2022-11-15T03:21:41.403Z,40.00
2022-11-15T03:24:15.071Z,40.75
2022-11-15T03:26:48.656Z,42.50
2022-11-15T03:29:22.144Z,39.00
2022-11-15T03:31:55.387Z,23.50
2022-11-15T03:34:40.324Z,45.00
2022-11-15T03:37:13.662Z,38.25
2022-11-15T03:39:45.088Z,41.75
2022-11-15T03:42:27.749Z,42.00
2022-11-15T03:45:06.907Z,31.75
2022-11-15T03:47:46.892Z,29.50
2022-11-15T03:50:20.667Z,44.00
2022-11-15T03:52:54.365Z,39.50
2022-11-15T03:55:25.159Z,34.25
2022-11-15T03:57:58.464Z,39.25
2022-11-15T04:00:29.705Z,37.25
2022-11-15T04:03:00.001Z,43.00
2022-11-15T04:05:30.443Z,34.75
2022-11-15T04:08:02.078Z,43.25
2022-11-15T04:10:32.856Z,34.00
2022-11-15T04:13:04.230Z,41.00
2022-11-15T04:15:36.802Z,37.75
2022-11-15T04:18:07.023Z,40.50
2022-11-15T04:20:37.380Z,46.75
2022-11-15T04:23:13.306Z,43.50
2022-11-15T04:25:44.984Z,44.25
2022-11-15T04:28:16.694Z,40.75
2022-11-15T04:30:47.483Z,34.50
2022-11-15T04:33:19.223Z,41.00
2022-11-15T04:35:49.937Z,41.00
2022-11-15T04:38:20.288Z,34.25
2022-11-15T04:40:50.881Z,34.00
2022-11-15T04:43:21.299Z,35.00
2022-11-15T04:45:51.714Z,37.25
2022-11-15T04:48:22.163Z,37.00
2022-11-15T04:50:52.818Z,36.50
2022-11-15T04:53:23.177Z,37.50
2022-11-15T04:55:53.640Z,30.25
2022-11-15T04:58:23.969Z,31.50
2022-11-15T05:00:54.798Z,31.75
2022-11-15T05:03:25.087Z,33.50
2022-11-15T05:05:55.829Z,30.75
2022-11-15T05:08:27.601Z,31.25
2022-11-15T05:10:58.092Z,32.25
2022-11-15T05:13:28.861Z,38.75
2022-11-15T05:15:59.485Z,32.25
2022-11-15T05:18:29.806Z,26.75
2022-11-15T05:21:07.659Z,31.50
2022-11-15T05:23:38.256Z,38.75
2022-11-15T05:26:10.330Z,31.25
2022-11-15T05:28:41.113Z,35.50
2022-11-15T05:31:15.648Z,35.50
2022-11-15T05:33:49.945Z,36.50
2022-11-15T05:36:32.704Z,39.50
2022-11-15T05:39:04.576Z,41.25
2022-11-15T05:41:58.457Z,37.50
2022-11-15T05:44:29.465Z,38.75
2022-11-15T05:47:00.161Z,40.50
2022-11-15T05:49:34.963Z,37.25
2022-11-15T05:52:08.199Z,30.00
2022-11-15T05:55:00.887Z,38.25
2022-11-15T05:57:31.911Z,40.25
2022-11-15T06:00:13.497Z,31.50
2022-11-15T06:06:19.377Z,39.75
2022-11-15T06:08:50.420Z,39.25
2022-11-15T06:11:29.833Z,24.00
2022-11-15T06:14:01.368Z,43.50
2022-11-15T06:16:32.033Z,38.25
2022-11-15T06:19:05.085Z,43.50
2022-11-15T06:21:35.896Z,39.25
2022-11-15T06:27:03.659Z,40.75
2022-11-15T06:29:34.096Z,45.75
2022-11-15T06:32:05.002Z,34.50
2022-11-15T06:34:36.083Z,42.25
2022-11-15T06:37:06.345Z,50.00
2022-11-15T06:39:37.401Z,44.50
2022-11-15T06:42:09.385Z,43.50
2022-11-15T06:44:39.852Z,41.00
2022-11-15T06:47:10.815Z,42.75
2022-11-15T06:49:41.654Z,46.50
2022-11-15T06:52:13.714Z,45.50
2022-11-15T06:54:55.049Z,40.50
2022-11-15T06:57:26.133Z,35.00
2022-11-15T07:00:07.170Z,39.00
2022-11-15T07:05:41.713Z,40.75
2022-11-15T07:08:14.924Z,37.25
2022-11-15T07:10:45.755Z,41.25
2022-11-15T07:13:19.779Z,49.00
2022-11-15T07:15:51.889Z,47.50
2022-11-15T07:18:28.491Z,48.50
2022-11-15T07:21:02.034Z,35.25
2022-11-15T07:24:04.727Z,50.50
2022-11-15T07:26:38.746Z,46.75
2022-11-15T07:29:10.710Z,52.50
2022-11-15T07:31:41.413Z,47.00
2022-11-15T07:34:14.791Z,45.75
2022-11-15T07:36:46.060Z,41.00
2022-11-15T07:39:17.994Z,47.25
2022-11-15T07:41:49.120Z,40.75
2022-11-15T07:44:22.175Z,43.50
2022-11-15T07:47:07.553Z,41.75
2022-11-15T07:49:39.582Z,41.75
2022-11-15T07:52:10.047Z,37.00
2022-11-15T07:54:41.525Z,44.00
2022-11-15T07:57:14.551Z,33.75
2022-11-15T07:59:48.296Z,36.75
2022-11-15T08:02:19.209Z,40.00
2022-11-15T08:04:51.435Z,35.25
2022-11-15T08:07:24.714Z,35.75
2022-11-15T08:10:07.664Z,40.50
2022-11-15T08:12:40.204Z,38.75
2022-11-15T08:16:08.841Z,26.25
2022-11-15T08:17:59.401Z,37.25
2022-11-15T08:20:31.533Z,34.25
2022-11-15T08:23:03.990Z,36.00
2022-11-15T08:25:48.254Z,37.25
2022-11-15T08:28:18.975Z,40.50
2022-11-15T08:30:51.902Z,37.00
2022-11-15T08:33:25.902Z,20.50
2022-11-15T08:35:58.427Z,38.75
2022-11-15T08:41:37.083Z,25.25
2022-11-15T08:44:10.022Z,39.00
2022-11-15T08:46:43.389Z,45.00
2022-11-15T08:49:15.532Z,38.00
2022-11-15T08:51:48.777Z,35.75
2022-11-15T08:54:20.745Z,40.50
2022-11-15T08:56:51.219Z,29.00
2022-11-15T08:59:21.705Z,29.00
2022-11-15T09:01:54.171Z,23.50
2022-11-15T09:04:25.904Z,26.50
2022-11-15T09:06:55.843Z,16.75
2022-11-15T09:09:26.296Z,24.25
2022-11-15T09:12:27.961Z,21.50
2022-11-15T09:14:58.144Z,20.00
2022-11-15T09:17:28.510Z,22.75
2022-11-15T09:19:59.507Z,26.00
2022-11-15T09:22:29.829Z,22.25
2022-11-15T09:28:18.358Z,20.75
2022-11-15T09:30:48.763Z,21.00
2022-11-15T09:33:19.100Z,19.50
2022-11-15T09:35:49.516Z,21.25
2022-11-15T09:38:40.629Z,14.50
2022-11-15T09:41:17.057Z,24.00
2022-11-15T09:43:59.506Z,31.75
2022-11-15T09:47:05.526Z,25.75
2022-11-15T09:49:36.132Z,29.50
2022-11-15T09:52:08.300Z,22.25
2022-11-15T09:54:54.703Z,22.75
2022-11-15T09:57:21.495Z,23.25
2022-11-15T10:03:08.153Z,37.25
2022-11-15T10:05:50.980Z,34.25
2022-11-15T10:08:43.752Z,17.75
2022-11-15T10:11:39.577Z,22.25
2022-11-15T10:14:20.385Z,19.50
2022-11-15T10:17:14.683Z,25.50
2022-11-15T10:19:48.636Z,33.50
2022-11-15T10:22:30.694Z,27.25
2022-11-15T10:25:20.580Z,30.50
2022-11-15T10:28:30.685Z,35.50
2022-11-15T10:31:03.045Z,25.00
2022-11-15T10:33:36.249Z,24.75
2022-11-15T10:36:24.067Z,38.75
2022-11-15T10:38:56.849Z,17.25
2022-11-15T10:41:33.676Z,12.25
2022-11-15T10:44:18.951Z,29.00
2022-11-15T10:47:01.527Z,28.25
2022-11-15T10:49:34.237Z,40.75
2022-11-15T10:52:20.027Z,41.25
2022-11-15T10:55:14.712Z,38.75
2022-11-15T10:58:07.613Z,35.50
2022-11-15T11:00:40.923Z,37.25
2022-11-15T11:03:29.286Z,29.50
2022-11-15T11:06:12.020Z,39.50
2022-11-15T11:09:04.714Z,36.00
2022-11-15T11:11:49.490Z,42.00
2022-11-15T11:14:32.081Z,33.00
2022-11-15T11:17:26.220Z,22.50
2022-11-15T11:20:05.640Z,13.00
2022-11-15T11:22:45.340Z,17.50
2022-11-15T11:25:39.207Z,24.00
2022-11-15T11:28:39.948Z,29.00
2022-11-15T11:31:22.277Z,19.50
2022-11-15T11:34:22.669Z,17.00
2022-11-15T11:40:10.288Z,13.50
2022-11-15T11:42:43.719Z,16.75
2022-11-15T11:45:36.454Z,19.25
2022-11-15T11:48:10.618Z,14.50
2022-11-15T11:50:44.341Z,20.75
2022-11-15T11:53:18.280Z,21.00
2022-11-15T11:58:49.434Z,13.75
2022-11-15T12:01:37.081Z,14.50
2022-11-15T12:04:28.721Z,13.00
2022-11-15T12:07:10.758Z,13.50
2022-11-15T12:10:04.576Z,11.25
2022-11-15T12:26:18.392Z,18.50
2022-11-15T12:29:07.845Z,12.50
2022-11-15T12:34:50.071Z,16.50
2022-11-15T12:37:40.738Z,18.00
2022-11-15T12:40:20.252Z,13.25
2022-11-15T12:45:48.020Z,36.00
2022-11-15T12:48:21.343Z,23.00
2022-11-15T12:51:12.138Z,12.00
2022-11-15T12:53:48.686Z,22.25
2022-11-15T12:56:21.867Z,25.25
2022-11-15T12:58:55.990Z,35.75
2022-11-15T13:01:35.613Z,24.25
2022-11-15T13:04:43.346Z,19.25
2022-11-15T13:07:55.044Z,16.50
2022-11-15T13:10:43.517Z,16.50
2022-11-15T13:13:58.450Z,17.00
2022-11-15T13:16:39.018Z,10.25
2022-11-15T13:19:12.008Z,15.50
2022-11-15T13:21:45.535Z,17.25
2022-11-15T13:24:18.951Z,23.25
2022-11-15T13:26:49.993Z,24.00
2022-11-15T13:29:22.140Z,18.50
2022-11-15T13:31:52.455Z,20.50
2022-11-15T13:34:50.110Z,19.75
2022-11-15T13:36:57.826Z,22.00
2022-11-15T13:39:36.455Z,24.50
2022-11-15T13:42:04.067Z,24.50
2022-11-15T13:44:36.470Z,17.00
2022-11-15T13:47:20.596Z,20.50
2022-11-15T13:49:53.900Z,22.25
2022-11-15T13:52:27.283Z,22.75
2022-11-15T13:55:03.878Z,24.75
2022-11-15T13:57:40.712Z,34.25
2022-11-15T14:00:36.182Z,34.50
2022-11-15T14:03:55.372Z,31.25
2022-11-15T14:06:22.791Z,28.25
2022-11-15T14:09:14.176Z,22.50
2022-11-15T14:11:55.771Z,26.25
2022-11-15T14:14:29.155Z,20.25
2022-11-15T14:17:01.677Z,16.25
2022-11-15T14:19:40.418Z,19.50
2022-11-15T14:22:30.837Z,24.75
2022-11-15T14:25:19.872Z,29.75
2022-11-15T14:28:10.517Z,38.00
2022-11-15T14:30:43.706Z,28.25
2022-11-15T14:33:32.978Z,28.50
2022-11-15T14:36:09.531Z,34.75
2022-11-15T18:51:15.337Z,53.75
2022-11-15T18:53:47.816Z,54.50
2022-11-15T18:56:22.723Z,56.75
2022-11-15T18:58:55.963Z,55.50
2022-11-15T19:02:05.355Z,53.25
2022-11-15T19:04:36.327Z,54.25
2022-11-15T19:07:09.524Z,56.75
2022-11-15T19:09:56.350Z,55.00
2022-11-15T19:12:22.697Z,57.25
2022-11-15T19:14:52.911Z,54.00
2022-11-15T19:17:24.004Z,43.25
2022-11-15T19:20:09.831Z,46.25
2022-11-15T19:26:25.593Z,44.25
2022-11-15T19:32:43.101Z,40.50
2022-11-15T19:35:23.232Z,42.00
2022-11-15T19:37:55.391Z,42.00
2022-11-15T19:40:27.439Z,37.50
2022-11-15T19:43:17.431Z,43.00
2022-11-15T20:22:21.655Z,46.25
2022-11-15T20:28:11.995Z,46.25
2022-11-15T20:30:57.230Z,43.00
2022-11-15T20:36:46.530Z,41.50
2022-11-15T20:42:23.981Z,40.50
2022-11-15T20:48:27.575Z,40.25
2022-11-15T20:51:07.226Z,44.00
2022-11-15T20:54:01.673Z,47.50
2022-11-15T20:56:34.293Z,50.25
2022-11-15T20:59:04.998Z,56.75
2022-11-15T21:11:21.522Z,60.50
2022-11-15T21:13:48.200Z,64.50
2022-11-15T21:16:39.840Z,63.75
2022-11-15T21:25:59.299Z,49.00
2022-11-15T21:31:52.128Z,46.00
2022-11-15T21:34:27.397Z,45.75
2022-11-15T21:37:00.947Z,40.00
2022-11-15T21:39:31.925Z,42.75
2022-11-15T21:42:02.072Z,42.50
2022-11-15T21:44:34.086Z,51.00
2022-11-15T21:47:04.575Z,48.50
2022-11-15T21:49:35.340Z,48.25
2022-11-15T21:52:06.114Z,42.50
2022-11-15T21:54:38.082Z,46.00
2022-11-15T21:57:08.751Z,44.75
2022-11-15T21:59:41.981Z,47.75
2022-11-15T22:02:18.087Z,46.50
2022-11-15T22:04:48.179Z,38.25
2022-11-15T22:07:22.601Z,36.00
2022-11-15T22:09:55.304Z,27.00
2022-11-15T22:12:29.701Z,38.75
2022-11-15T22:14:57.970Z,47.25
2022-11-15T22:17:28.409Z,50.75
2022-11-15T22:20:11.494Z,50.00
2022-11-15T22:22:32.497Z,50.75
2022-11-15T22:25:03.095Z,48.00
2022-11-15T22:27:34.044Z,46.50
2022-11-15T22:30:08.799Z,49.00
2022-11-15T22:32:39.349Z,50.67
2022-11-15T22:35:10.235Z,50.25
2022-11-15T22:37:41.086Z,52.25
2022-11-15T22:40:13.768Z,53.25
2022-11-15T22:42:44.126Z,51.75
2022-11-15T22:45:14.379Z,48.00
2022-11-15T22:47:47.969Z,47.50
2022-11-15T22:50:19.355Z,47.00
2022-11-15T22:52:51.115Z,48.00
2022-11-15T22:55:21.481Z,43.00
2022-11-15T22:57:51.836Z,43.50
2022-11-15T23:00:22.496Z,40.00
2022-11-15T23:02:54.349Z,44.25
2022-11-15T23:05:26.029Z,45.75
2022-11-15T23:07:56.368Z,46.75
2022-11-15T23:10:29.761Z,47.00
2022-11-15T23:13:09.323Z,60.50
2022-11-15T23:15:39.648Z,67.50
2022-11-15T23:18:13.104Z,67.00
2022-11-15T23:20:45.401Z,70.75
2022-11-15T23:23:17.133Z,72.50
2022-11-15T23:25:47.813Z,72.00
2022-11-15T23:28:18.282Z,63.25
2022-11-15T23:30:49.282Z,60.50
2022-11-15T23:33:20.013Z,62.25
2022-11-15T23:35:56.324Z,55.00
2022-11-15T23:38:29.871Z,58.00
2022-11-15T23:41:00.523Z,60.75
2022-11-15T23:43:33.063Z,60.00
2022-11-15T23:46:04.057Z,55.25
2022-11-15T23:48:35.994Z,53.00
2022-11-15T23:51:06.705Z,53.00
2022-11-15T23:53:37.645Z,53.00
2022-11-15T23:56:13.978Z,52.50
2022-11-15T23:58:44.872Z,52.75
